Seaford, Delaware
Current Conditions -  °F | °C
As of 6:54 PM on Saturday 25 Oct 2014 (Local Time) from KGED Reporting Station
Clear Clear  
Wind Chill: 60°   Ceiling: Unl
Heat Index: 60°   Visibility: 10mi
Dew Point: 46°   Wind: 9mph
Humidity: 60%   Direction: 220°SW
Pressure: 29.75"   Gusts: NA
Location:  38.64°N, 75.61°W
Report Text: KGED 252254Z AUTO 22008KT 10SM CLR 16/08 A2975 RMK AO2 SLP075 T01560078 $
Loading
Personal Weather Stations






























Interactive Weather Map
Tropical Storm Tracking
New forecast layout! Learn more

10-Day Weather Forecast

Advertisements
Track Severe Weather on mobile